Date,TemperatureHighF,TemperatureAvgF,TemperatureLowF,DewpointHighF,DewpointAvgF,DewpointLowF,HumidityHigh,HumidityAvg,HumidityLow,PressureMaxIn,PressureMinIn,WindSpeedMaxMPH,WindSpeedAvgMPH,GustSpeedMaxMPH,PrecipitationSumIn
2013-1-1,34,27,20,25,17,12,73,66,57,30.17,30.01,18,7,18,0.00
2013-1-2,37,26,15,18,12,4,63,55,40,30.25,30.15,16,5,16,0.00
2013-1-3,36,26,17,15,9,6,62,48,38,30.24,30.05,18,6,18,0.00
2013-1-4,40,31,24,19,12,7,54,46,40,30.08,30.00,12,5,12,0.00
2013-1-5,41,30,25,21,16,11,66,55,44,30.20,30.04,13,4,13,0.00
2013-1-6,42,33,22,19,15,11,65,49,37,30.04,29.82,16,4,16,0.00
2013-1-7,44,35,26,24,20,14,67,53,43,29.89,29.63,17,3,17,0.00
2013-1-8,48,40,31,24,19,14,53,43,27,29.97,29.64,25,6,25,0.00
2013-1-9,56,44,31,27,23,16,58,44,29,29.95,29.67,16,4,16,0.00
2013-1-10,48,34,20,29,21,12,73,59,43,29.68,29.49,14,4,14,0.00
2013-1-11,20,13,10,11,7,4,79,74,65,30.06,29.68,10,3,10,0.00
2013-1-12,22,12,4,10,5,-3,76,71,59,30.08,30.03,10,3,10,0.00
2013-1-13,23,14,8,10,4,1,73,66,56,30.13,30.06,15,4,15,0.00
2013-1-14,22,15,9,8,4,1,70,62,50,30.09,29.95,17,7,17,0.00
2013-1-15,33,25,19,20,15,8,75,66,58,30.08,29.95,21,8,21,0.00
2013-1-16,46,34,26,26,20,16,66,55,45,30.25,30.03,17,6,17,0.07
2013-1-17,44,34,26,24,19,15,62,54,44,30.27,29.97,19,7,19,0.00
2013-1-18,56,39,34,23,19,17,51,45,22,29.98,29.85,18,6,18,0.00
2013-1-19,42,35,23,25,20,15,75,55,40,30.19,29.97,8,3,8,0.00
2013-1-20,34,24,17,20,15,9,72,67,57,30.38,30.05,8,3,8,0.00
2013-1-21,31,21,14,18,12,7,76,68,59,30.22,29.96,5,1,5,0.00
2013-1-22,48,37,13,24,18,7,77,48,38,30.03,29.96,13,3,13,0.00
2013-1-23,32,24,18,16,14,10,73,65,50,30.15,29.88,9,2,9,0.00
2013-1-24,54,36,20,29,20,13,76,56,34,30.05,29.81,20,3,20,0.00
2013-1-25,54,37,22,32,23,14,76,58,42,30.05,29.87,11,2,11,0.00
2013-1-26,56,43,34,31,26,21,63,51,38,29.88,29.66,9,2,9,0.00
2013-1-27,38,33,29,33,27,22,83,77,62,29.81,29.67,10,1,10,0.02
2013-1-28,39,31,24,28,21,14,84,68,42,29.81,29.69,16,3,16,0.01
2013-1-29,29,21,8,20,10,-1,72,63,51,30.12,29.68,12,3,12,0.00
2013-1-30,35,24,10,27,17,2,82,73,59,30.00,29.78,17,3,17,0.00
2013-1-31,30,18,4,23,10,-2,78,73,61,30.16,29.95,14,3,14,0.00